Time,TemperatureF,DewpointF,PressureIn,WindDirection,WindDirectionDegrees,WindSpeedMPH,WindSpeedGustMPH,Humidity,HourlyPrecipIn,Conditions,Clouds,dailyrainin,SoftwareType,DateUTC
2015-07-07 00:03:00,72.3,62.0,29.35,SSW,212,3.6,3.6,70,0.00,,---,0.00,VWS V13.01,2015-07-07 04:03:00,
2015-07-07 00:08:00,72.3,62.4,29.35,SSW,206,2.7,2.7,71,0.00,,---,0.00,VWS V13.01,2015-07-07 04:08:00,
2015-07-07 00:13:00,72.3,62.4,29.32,SSW,208,0.0,3.6,71,0.00,,---,0.00,VWS V13.01,2015-07-07 04:13:00,
2015-07-07 00:18:00,72.1,63.0,29.32,SSW,207,2.2,2.7,73,0.00,,---,0.00,VWS V13.01,2015-07-07 04:18:00,
2015-07-07 00:23:00,72.0,62.8,29.32,SW,216,0.0,0.0,73,0.00,,---,0.00,VWS V13.01,2015-07-07 04:23:00,
2015-07-07 00:28:00,72.0,63.2,29.32,SW,229,0.0,2.2,74,0.00,,---,0.00,VWS V13.01,2015-07-07 04:28:00,
2015-07-07 00:33:00,71.8,63.1,29.32,SW,224,0.0,2.2,74,0.00,,---,0.00,VWS V13.01,2015-07-07 04:33:00,
2015-07-07 00:38:00,71.6,62.9,29.32,SSW,199,0.0,2.7,74,0.00,,---,0.00,VWS V13.01,2015-07-07 04:38:00,
2015-07-07 00:43:00,71.6,63.3,29.32,SW,215,0.0,2.2,75,0.00,,---,0.00,VWS V13.01,2015-07-07 04:43:00,
2015-07-07 00:48:00,71.4,63.5,29.32,SSW,209,0.0,0.0,76,0.00,,---,0.00,VWS V13.01,2015-07-07 04:48:00,
2015-07-07 00:53:00,71.4,63.8,29.32,SW,225,4.0,4.0,77,0.00,,---,0.00,VWS V13.01,2015-07-07 04:53:00,
2015-07-07 00:58:00,71.2,64.0,29.32,SSW,207,0.0,3.1,78,0.00,,---,0.00,VWS V13.01,2015-07-07 04:58:00,
2015-07-07 01:03:00,71.2,64.4,29.32,SW,227,2.7,3.1,79,0.00,,---,0.00,VWS V13.01,2015-07-07 05:03:00,
2015-07-07 01:08:00,71.4,64.9,29.32,SW,224,2.2,2.2,80,0.00,,---,0.00,VWS V13.01,2015-07-07 05:08:00,
2015-07-07 01:13:00,71.2,64.8,29.32,SW,231,0.0,2.7,80,0.00,,---,0.00,VWS V13.01,2015-07-07 05:13:00,
2015-07-07 01:18:00,71.2,64.8,29.32,SSW,209,3.1,3.1,80,0.00,,---,0.00,VWS V13.01,2015-07-07 05:18:00,
2015-07-07 01:23:00,71.2,64.8,29.32,SW,214,2.7,2.7,80,0.00,,---,0.00,VWS V13.01,2015-07-07 05:23:00,
2015-07-07 01:28:00,71.2,65.1,29.32,SSW,213,2.7,2.7,81,0.00,,---,0.00,VWS V13.01,2015-07-07 05:28:00,
2015-07-07 01:33:00,71.2,65.1,29.32,SW,222,3.1,3.1,81,0.00,,---,0.00,VWS V13.01,2015-07-07 05:33:00,
2015-07-07 01:38:00,71.1,64.9,29.32,SSW,198,3.6,3.6,81,0.00,,---,0.00,VWS V13.01,2015-07-07 05:38:00,
2015-07-07 01:43:00,71.1,65.3,29.32,SW,220,2.2,3.1,82,0.00,,---,0.00,VWS V13.01,2015-07-07 05:43:00,
2015-07-07 01:48:00,70.9,65.5,29.32,WSW,238,2.7,4.0,83,0.00,,---,0.00,VWS V13.01,2015-07-07 05:48:00,
2015-07-07 01:53:00,71.1,65.6,29.32,SSW,210,2.7,5.4,83,0.00,,---,0.00,VWS V13.01,2015-07-07 05:53:00,
2015-07-07 01:58:00,71.1,65.6,29.32,SSW,213,3.6,3.6,83,0.00,,---,0.00,VWS V13.01,2015-07-07 05:58:00,
2015-07-07 02:03:00,70.9,65.8,29.32,SW,224,2.2,3.1,84,0.00,,---,0.00,VWS V13.01,2015-07-07 06:03:00,
2015-07-07 02:08:00,71.1,66.0,29.32,WSW,238,2.2,2.7,84,0.00,,---,0.00,VWS V13.01,2015-07-07 06:08:00,
2015-07-07 02:13:00,71.1,66.0,29.32,SW,226,2.2,2.2,84,0.00,,---,0.00,VWS V13.01,2015-07-07 06:13:00,
2015-07-07 02:18:00,71.1,66.0,29.32,SSW,209,2.7,2.7,84,0.00,,---,0.00,VWS V13.01,2015-07-07 06:18:00,
2015-07-07 02:23:00,70.9,65.8,29.32,SW,217,0.0,0.0,84,0.00,,---,0.00,VWS V13.01,2015-07-07 06:23:00,
2015-07-07 02:28:00,70.9,65.8,29.32,SW,234,2.2,2.7,84,0.00,,---,0.00,VWS V13.01,2015-07-07 06:28:00,
2015-07-07 02:33:00,70.7,66.0,29.32,WSW,243,0.0,2.2,85,0.00,,---,0.00,VWS V13.01,2015-07-07 06:33:00,
2015-07-07 02:38:00,70.7,66.0,29.32,SSW,204,2.2,2.2,85,0.00,,---,0.00,VWS V13.01,2015-07-07 06:38:00,
2015-07-07 02:43:00,70.7,66.3,29.32,SW,229,0.0,0.0,86,0.00,,---,0.00,VWS V13.01,2015-07-07 06:43:00,
2015-07-07 02:48:00,70.7,66.3,29.32,SW,236,0.0,0.0,86,0.00,,---,0.00,VWS V13.01,2015-07-07 06:48:00,
2015-07-07 02:53:00,70.7,66.3,29.32,South,190,3.6,3.6,86,0.00,,---,0.00,VWS V13.01,2015-07-07 06:53:00,
2015-07-07 02:58:00,70.7,66.3,29.32,SW,220,0.0,0.0,86,0.00,,---,0.00,VWS V13.01,2015-07-07 06:58:00,
2015-07-07 03:03:00,70.7,66.3,29.32,SSW,211,0.0,0.0,86,0.00,,---,0.00,VWS V13.01,2015-07-07 07:03:00,
2015-07-07 03:08:00,70.5,66.1,29.32,SW,233,0.0,0.0,86,0.00,,---,0.00,VWS V13.01,2015-07-07 07:08:00,
2015-07-07 03:13:00,70.5,66.1,29.32,SSW,207,3.6,3.6,86,0.00,,---,0.00,VWS V13.01,2015-07-07 07:13:00,
2015-07-07 03:18:00,70.3,66.0,29.32,SW,221,0.0,0.0,86,0.00,,---,0.00,VWS V13.01,2015-07-07 07:18:00,
2015-07-07 03:23:00,70.3,66.0,29.32,SW,221,0.0,0.0,86,0.00,,---,0.00,VWS V13.01,2015-07-07 07:23:00,
2015-07-07 03:28:00,70.2,66.1,29.32,SW,229,3.1,3.1,87,0.00,,---,0.00,VWS V13.01,2015-07-07 07:28:00,
2015-07-07 03:33:00,70.0,66.3,29.32,SW,221,0.0,2.2,88,0.00,,---,0.00,VWS V13.01,2015-07-07 07:33:00,
2015-07-07 03:38:00,70.2,66.4,29.32,WSW,243,2.7,3.1,88,0.00,,---,0.00,VWS V13.01,2015-07-07 07:38:00,
2015-07-07 03:43:00,70.2,66.8,29.32,SW,233,2.2,2.2,89,0.00,,---,0.00,VWS V13.01,2015-07-07 07:43:00,
2015-07-07 03:48:00,70.2,66.8,29.32,SW,220,2.2,3.1,89,0.00,,---,0.00,VWS V13.01,2015-07-07 07:48:00,
2015-07-07 03:53:00,70.2,66.8,29.32,SSW,206,3.1,3.1,89,0.00,,---,0.00,VWS V13.01,2015-07-07 07:53:00,
2015-07-07 03:58:00,70.2,66.8,29.32,SW,218,3.6,3.6,89,0.00,,---,0.00,VWS V13.01,2015-07-07 07:58:00,
2015-07-07 04:03:00,70.2,66.8,29.32,SW,216,2.7,4.9,89,0.00,,---,0.00,VWS V13.01,2015-07-07 08:03:00,
2015-07-07 04:08:00,70.2,66.8,29.32,SSW,211,3.1,3.1,89,0.00,,---,0.00,VWS V13.01,2015-07-07 08:08:00,
2015-07-07 04:13:00,70.2,66.8,29.29,SSW,209,2.7,2.7,89,0.00,,---,0.00,VWS V13.01,2015-07-07 08:13:00,
2015-07-07 04:18:00,70.2,66.8,29.29,SW,222,0.0,2.2,89,0.00,,---,0.00,VWS V13.01,2015-07-07 08:18:00,
2015-07-07 04:23:00,70.2,67.1,29.29,SSW,206,3.6,3.6,90,0.00,,---,0.00,VWS V13.01,2015-07-07 08:23:00,